createdAt,value
2022-10-21T00:00:34.196Z,15.55
2022-10-21T00:02:37.044Z,15.98
2022-10-21T00:04:40.068Z,14.13
2022-10-21T00:06:44.088Z,15.07
2022-10-21T00:08:46.759Z,15.77
2022-10-21T00:10:53.918Z,14.15
2022-10-21T00:12:56.521Z,15.02
2022-10-21T00:14:59.631Z,15.63
2022-10-21T00:17:02.317Z,13.70
2022-10-21T00:19:04.869Z,15.00
2022-10-21T00:21:08.988Z,14.95
2022-10-21T00:23:12.941Z,16.15
2022-10-21T00:25:15.667Z,15.52
2022-10-21T00:27:18.397Z,17.83
2022-10-21T00:31:25.624Z,17.38
2022-10-21T00:33:29.365Z,16.17
2022-10-21T00:35:34.587Z,16.00
2022-10-21T00:37:37.610Z,14.98
2022-10-21T00:39:42.239Z,16.60
2022-10-21T00:41:44.852Z,15.57
2022-10-21T00:43:58.787Z,15.05
2022-10-21T00:46:05.855Z,15.65
2022-10-21T00:48:15.268Z,14.88
2022-10-21T00:50:28.030Z,13.73
2022-10-21T00:52:34.127Z,13.75
2022-10-21T00:54:38.051Z,13.50
2022-10-21T00:56:44.167Z,14.18
2022-10-21T00:58:49.301Z,14.43
2022-10-21T01:00:55.742Z,12.80
2022-10-21T01:02:59.020Z,14.77
2022-10-21T01:05:04.509Z,12.70
2022-10-21T01:07:07.160Z,12.35
2022-10-21T01:09:10.268Z,13.60
2022-10-21T01:11:15.428Z,12.35
2022-10-21T01:13:29.350Z,12.77
2022-10-21T01:15:37.726Z,12.90
2022-10-21T01:17:48.593Z,12.43
2022-10-21T01:20:21.044Z,12.60
2022-10-21T01:22:43.578Z,11.85
2022-10-21T01:25:25.532Z,11.93
2022-10-21T01:27:39.681Z,12.30
2022-10-21T01:30:28.094Z,12.55
2022-10-21T01:32:46.927Z,12.20
2022-10-21T01:34:58.981Z,12.10
2022-10-21T01:37:09.609Z,11.55
2022-10-21T01:39:20.085Z,13.07
2022-10-21T01:41:29.892Z,12.15
2022-10-21T01:43:39.958Z,13.63
2022-10-21T01:45:48.180Z,11.15
2022-10-21T01:47:56.033Z,12.73
2022-10-21T01:50:04.577Z,12.73
2022-10-21T01:52:08.613Z,11.52
2022-10-21T01:54:15.740Z,11.45
2022-10-21T01:56:20.498Z,12.00
2022-10-21T01:58:26.117Z,10.88
2022-10-21T02:00:29.317Z,10.63
2022-10-21T02:02:34.926Z,10.48
2022-10-21T02:04:42.886Z,10.57
2022-10-21T02:06:45.678Z,9.95
2022-10-21T02:08:48.441Z,9.60
2022-10-21T02:10:54.629Z,8.93
2022-10-21T02:13:03.023Z,9.73
2022-10-21T02:15:08.666Z,11.00
2022-10-21T02:17:14.756Z,10.00
2022-10-21T02:19:20.519Z,10.88
2022-10-21T02:21:27.064Z,12.80
2022-10-21T02:23:38.920Z,10.45
2022-10-21T02:25:45.445Z,11.68
2022-10-21T02:27:48.999Z,10.98
2022-10-21T02:29:55.576Z,10.80
2022-10-21T02:34:30.241Z,9.65
2022-10-21T02:36:47.079Z,9.00
2022-10-21T02:38:56.184Z,10.13
2022-10-21T02:41:02.862Z,9.73
2022-10-21T02:43:10.227Z,9.40
2022-10-21T02:45:13.067Z,10.25
2022-10-21T02:47:16.654Z,9.77
2022-10-21T02:49:19.418Z,9.80
2022-10-21T02:51:21.993Z,10.15
2022-10-21T02:53:25.920Z,10.45
2022-10-21T02:55:28.493Z,11.00
2022-10-21T02:57:31.056Z,11.02
2022-10-21T02:59:33.664Z,10.55
2022-10-21T03:01:36.270Z,10.50
2022-10-21T03:03:38.856Z,9.82
2022-10-21T03:05:41.598Z,10.20
2022-10-21T03:07:44.251Z,9.77
2022-10-21T03:09:48.175Z,10.68
2022-10-21T03:11:50.875Z,10.70
2022-10-21T03:13:53.440Z,10.70
2022-10-21T03:15:56.084Z,10.60
2022-10-21T03:17:58.799Z,10.20
2022-10-21T03:20:01.516Z,10.38
2022-10-21T03:22:04.185Z,11.07
2022-10-21T03:24:11.112Z,11.73
2022-10-21T03:26:23.738Z,12.70
2022-10-21T03:28:26.460Z,13.85
2022-10-21T03:30:29.817Z,12.90
2022-10-21T03:32:33.577Z,12.85
2022-10-21T03:34:36.210Z,12.52
2022-10-21T03:36:38.800Z,14.45
2022-10-21T03:38:41.400Z,14.43
2022-10-21T03:40:43.988Z,12.35
2022-10-21T03:42:47.878Z,13.93
2022-10-21T03:44:50.440Z,14.25
2022-10-21T03:46:53.037Z,14.00
2022-10-21T03:48:59.431Z,13.32
2022-10-21T03:51:06.618Z,14.07
2022-10-21T03:53:13.958Z,13.15
2022-10-21T03:55:24.134Z,14.25
2022-10-21T03:57:26.898Z,12.48
2022-10-21T03:59:30.844Z,12.98
2022-10-21T04:01:33.514Z,13.65
2022-10-21T04:03:36.142Z,13.38
2022-10-21T04:05:38.754Z,12.57
2022-10-21T04:07:41.823Z,11.75
2022-10-21T04:09:44.484Z,11.88
2022-10-21T04:11:47.139Z,12.15
2022-10-21T04:13:49.753Z,12.18
2022-10-21T04:15:58.721Z,10.80
2022-10-21T04:18:01.318Z,10.75
2022-10-21T04:20:04.643Z,11.20
2022-10-21T04:22:07.364Z,10.65
2022-10-21T04:24:09.942Z,10.52
2022-10-21T04:26:13.086Z,10.63
2022-10-21T04:28:15.839Z,10.73
2022-10-21T04:30:18.772Z,10.90
2022-10-21T04:32:23.069Z,10.45
2022-10-21T04:34:25.874Z,9.57
2022-10-21T04:36:28.710Z,11.15
2022-10-21T04:38:31.354Z,10.68
2022-10-21T04:40:33.988Z,9.93
2022-10-21T04:42:36.619Z,12.13
2022-10-21T04:44:40.436Z,11.32
2022-10-21T04:46:43.085Z,11.23
2022-10-21T04:48:47.142Z,11.93
2022-10-21T04:50:50.009Z,11.88
2022-10-21T04:52:52.661Z,10.73
2022-10-21T04:54:55.252Z,10.88
2022-10-21T04:56:57.952Z,9.75
2022-10-21T04:59:00.511Z,9.82
2022-10-21T05:01:03.230Z,8.98
2022-10-21T05:03:05.955Z,8.73
2022-10-21T05:05:10.580Z,8.75
2022-10-21T05:07:13.192Z,7.28
2022-10-21T05:09:15.982Z,7.60
2022-10-21T05:11:18.634Z,7.53
2022-10-21T05:13:21.239Z,7.25
2022-10-21T05:15:24.055Z,7.65
2022-10-21T05:17:26.835Z,6.53
2022-10-21T05:19:31.371Z,5.90
2022-10-21T05:23:43.403Z,6.05
2022-10-21T05:25:46.411Z,7.32
2022-10-21T05:27:49.267Z,6.82
2022-10-21T05:29:51.902Z,7.28
2022-10-21T05:31:54.524Z,7.32
2022-10-21T05:33:58.107Z,6.57
2022-10-21T05:36:02.636Z,5.60
2022-10-21T05:38:06.748Z,5.50
2022-10-21T05:40:10.223Z,5.72
2022-10-21T05:42:12.888Z,5.40
2022-10-21T05:44:15.575Z,4.97
2022-10-21T05:46:18.354Z,5.85
2022-10-21T05:48:21.475Z,5.18
2022-10-21T05:50:24.550Z,3.97
2022-10-21T05:52:27.221Z,4.43
2022-10-21T05:54:31.225Z,3.80
2022-10-21T05:56:33.923Z,4.28
2022-10-21T05:58:36.769Z,4.15
2022-10-21T06:00:40.190Z,3.97
2022-10-21T06:02:42.949Z,4.13
2022-10-21T06:04:45.545Z,4.00
2022-10-21T06:06:48.238Z,4.75
2022-10-21T06:08:51.034Z,5.43
2022-10-21T06:11:02.716Z,4.57
2022-10-21T06:13:05.338Z,4.53
2022-10-21T06:15:09.023Z,4.28
2022-10-21T06:17:11.694Z,4.57
2022-10-21T06:19:14.313Z,4.55
2022-10-21T06:21:16.963Z,3.92
2022-10-21T06:23:19.564Z,4.22
2022-10-21T06:25:23.697Z,4.28
2022-10-21T06:27:27.717Z,4.53
2022-10-21T06:29:30.454Z,4.50
2022-10-21T06:31:33.036Z,4.38
2022-10-21T06:33:36.451Z,4.28
2022-10-21T06:35:39.113Z,4.35
2022-10-21T06:37:41.793Z,4.43
2022-10-21T06:39:44.403Z,3.50
2022-10-21T06:41:47.142Z,4.18
2022-10-21T06:43:51.178Z,3.40
2022-10-21T06:45:53.823Z,4.60
2022-10-21T06:47:56.452Z,4.05
2022-10-21T06:50:02.889Z,4.03
2022-10-21T06:52:05.974Z,4.45
2022-10-21T06:54:08.615Z,4.40
2022-10-21T06:56:13.235Z,3.58
2022-10-21T06:58:15.820Z,4.47
2022-10-21T07:00:19.904Z,4.47
2022-10-21T07:02:24.120Z,4.10
2022-10-21T07:04:26.888Z,4.28
2022-10-21T07:06:29.603Z,5.07
2022-10-21T07:08:46.677Z,4.60
2022-10-21T07:10:56.359Z,4.88
2022-10-21T07:12:58.950Z,3.80
2022-10-21T07:15:01.569Z,4.47
2022-10-21T07:17:05.647Z,5.22
2022-10-21T07:19:08.450Z,3.83
2022-10-21T07:21:14.699Z,3.88
2022-10-21T07:23:17.263Z,4.50
2022-10-21T07:25:20.153Z,4.10
2022-10-21T07:27:22.814Z,3.85
2022-10-21T07:29:25.462Z,3.88
2022-10-21T07:31:29.505Z,4.60
2022-10-21T07:33:35.150Z,4.55
2022-10-21T07:35:37.952Z,5.75
2022-10-21T07:37:40.953Z,5.82
2022-10-21T07:39:43.826Z,5.13
2022-10-21T07:41:50.363Z,6.95
2022-10-21T07:46:00.695Z,5.85
2022-10-21T07:48:06.086Z,5.20
2022-10-21T07:50:10.804Z,6.13
2022-10-21T07:54:16.204Z,6.65
2022-10-21T07:56:20.897Z,5.25
2022-10-21T07:58:23.506Z,6.60
2022-10-21T08:00:26.213Z,6.65
2022-10-21T08:02:28.882Z,6.18
2022-10-21T08:04:33.246Z,7.03
2022-10-21T08:06:37.444Z,6.65
2022-10-21T08:08:41.351Z,8.00
2022-10-21T08:10:44.358Z,7.70
2022-10-21T08:12:47.068Z,7.40
2022-10-21T08:14:49.721Z,7.63
2022-10-21T08:16:53.791Z,7.60
2022-10-21T08:18:56.945Z,7.13
2022-10-21T08:20:59.601Z,7.45
2022-10-21T08:23:03.583Z,8.57
2022-10-21T08:25:07.241Z,6.95
2022-10-21T08:27:09.882Z,8.90
2022-10-21T08:29:12.605Z,8.15
2022-10-21T08:31:17.281Z,7.38
2022-10-21T08:33:20.027Z,7.20
2022-10-21T08:35:22.867Z,7.03
2022-10-21T08:37:25.799Z,8.13
2022-10-21T08:39:29.945Z,7.00
2022-10-21T08:41:46.727Z,7.13
2022-10-21T08:43:51.061Z,7.22
2022-10-21T08:45:58.702Z,7.22
2022-10-21T08:48:06.799Z,7.38
2022-10-21T08:50:14.621Z,5.95
2022-10-21T08:52:22.023Z,6.18
2022-10-21T08:54:39.905Z,5.90
2022-10-21T08:56:44.012Z,6.45
2022-10-21T08:58:49.129Z,6.30
2022-10-21T09:00:55.889Z,6.68
2022-10-21T09:03:16.629Z,6.70
2022-10-21T09:05:29.132Z,6.88
2022-10-21T09:09:52.778Z,6.45
2022-10-21T09:12:07.142Z,7.32
2022-10-21T09:14:39.933Z,5.75
2022-10-21T09:16:50.530Z,5.40
2022-10-21T09:19:02.682Z,5.60
2022-10-21T09:21:11.802Z,5.85
2022-10-21T09:23:34.285Z,5.25
2022-10-21T09:25:49.573Z,4.50
2022-10-21T09:27:56.691Z,4.70
2022-10-21T09:30:03.057Z,4.57
2022-10-21T09:32:16.105Z,4.90
2022-10-21T09:34:30.313Z,5.05
2022-10-21T09:36:37.445Z,4.40
2022-10-21T09:38:46.217Z,3.42
2022-10-21T09:40:53.308Z,2.90
2022-10-21T09:42:59.185Z,2.85
2022-10-21T09:45:01.838Z,3.55
2022-10-21T09:47:16.652Z,2.80
2022-10-21T09:50:01.638Z,3.35
2022-10-21T09:51:51.479Z,2.25
2022-10-21T09:53:56.706Z,2.08
2022-10-21T09:56:03.763Z,2.00
2022-10-21T09:58:07.784Z,1.92
2022-10-21T10:00:13.788Z,2.05
2022-10-21T10:02:18.695Z,1.70
2022-10-21T10:04:30.549Z,1.80
2022-10-21T10:06:35.993Z,2.47
2022-10-21T10:08:40.866Z,1.98
2022-10-21T10:10:43.591Z,2.33
2022-10-21T10:12:56.702Z,2.13
2022-10-21T10:15:28.143Z,2.25
2022-10-21T10:17:37.093Z,1.92
2022-10-21T10:19:39.832Z,1.83
2022-10-21T10:21:42.673Z,1.80
2022-10-21T10:23:47.591Z,1.92
2022-10-21T10:25:53.020Z,1.90
2022-10-21T10:27:59.325Z,2.13
2022-10-21T10:30:04.194Z,2.10
2022-10-21T10:32:15.461Z,2.00
2022-10-21T10:34:22.163Z,2.22
2022-10-21T10:36:32.127Z,2.25
2022-10-21T10:38:37.303Z,2.03
2022-10-21T10:40:42.868Z,2.20
2022-10-21T10:42:47.206Z,2.17
2022-10-21T10:44:54.012Z,2.38
2022-10-21T10:47:00.249Z,2.45
2022-10-21T10:49:07.753Z,2.47
2022-10-21T10:51:25.525Z,2.10
2022-10-21T10:53:33.132Z,2.00
2022-10-21T10:55:43.012Z,2.35
2022-10-21T10:57:59.303Z,2.25
2022-10-21T11:00:17.230Z,2.17
2022-10-21T11:02:39.118Z,2.13
2022-10-21T11:04:49.546Z,2.70
2022-10-21T11:06:57.085Z,2.25
2022-10-21T11:09:02.169Z,2.70
2022-10-21T11:11:08.223Z,2.15
2022-10-21T11:13:13.985Z,1.95
2022-10-21T11:15:17.379Z,2.20
2022-10-21T11:17:22.239Z,2.38
2022-10-21T11:19:34.131Z,2.20
2022-10-21T11:21:45.301Z,2.28
2022-10-21T11:24:13.633Z,2.33
2022-10-21T11:26:26.397Z,2.08
2022-10-21T11:28:34.721Z,1.75
2022-10-21T11:30:58.757Z,2.20
2022-10-21T11:33:10.437Z,2.10
2022-10-21T11:35:24.379Z,2.20
2022-10-21T11:37:37.783Z,2.40
2022-10-21T11:39:50.509Z,1.92
2022-10-21T11:42:00.351Z,2.15
2022-10-21T11:44:15.629Z,2.00
2022-10-21T11:46:25.500Z,2.03
2022-10-21T11:48:37.869Z,1.98
2022-10-21T11:53:11.762Z,1.73
2022-10-21T11:55:31.565Z,1.73
2022-10-21T11:57:40.542Z,2.25
2022-10-21T12:00:01.758Z,1.92
2022-10-21T12:02:16.311Z,1.40
2022-10-21T12:04:45.994Z,1.75
2022-10-21T12:06:59.563Z,1.75
2022-10-21T12:09:06.997Z,1.58
2022-10-21T12:11:13.905Z,1.90
2022-10-21T12:13:22.350Z,1.63
2022-10-21T12:15:31.714Z,1.73
2022-10-21T12:17:38.584Z,1.73
2022-10-21T12:19:41.633Z,1.52
2022-10-21T12:21:46.527Z,1.80
2022-10-21T12:23:56.098Z,1.30
2022-10-21T12:26:13.853Z,1.98
2022-10-21T12:28:25.325Z,1.40
2022-10-21T12:30:33.683Z,1.95
2022-10-21T12:32:42.079Z,1.27
2022-10-21T12:34:44.750Z,1.10
2022-10-21T12:36:50.569Z,1.13
2022-10-21T12:38:55.797Z,1.17
2022-10-21T12:41:27.816Z,0.90
2022-10-21T12:43:30.531Z,1.27
2022-10-21T12:45:35.683Z,1.45
2022-10-21T12:47:45.560Z,1.83
2022-10-21T12:49:48.327Z,1.80
2022-10-21T12:51:55.321Z,1.50
2022-10-21T12:54:08.305Z,1.95
2022-10-21T12:56:12.501Z,1.83
2022-10-21T12:58:27.702Z,1.50
2022-10-21T13:00:54.033Z,1.70
2022-10-21T13:03:02.644Z,1.52
2022-10-21T13:05:05.326Z,1.33
2022-10-21T13:07:29.182Z,1.60
2022-10-21T13:09:36.842Z,1.40
2022-10-21T13:11:40.702Z,1.40
2022-10-21T13:13:43.971Z,1.70
2022-10-21T13:15:48.271Z,1.58
2022-10-21T13:17:53.196Z,1.50
2022-10-21T13:19:57.080Z,1.42
2022-10-21T13:22:11.270Z,1.58
2022-10-21T13:24:24.483Z,1.30
2022-10-21T13:26:30.091Z,1.33
2022-10-21T13:28:32.820Z,1.20
2022-10-21T13:30:37.483Z,1.83
2022-10-21T13:32:41.584Z,1.10
2022-10-21T13:34:57.766Z,1.50
2022-10-21T13:37:00.446Z,1.70
2022-10-21T13:39:17.806Z,1.40
2022-10-21T13:41:23.559Z,1.33
2022-10-21T13:43:30.856Z,1.27
2022-10-21T13:45:37.072Z,1.15
2022-10-21T13:47:39.965Z,1.10
2022-10-21T13:49:43.093Z,0.90
2022-10-21T13:51:47.692Z,1.05
2022-10-21T13:53:54.918Z,1.20
2022-10-21T13:56:00.661Z,1.10
2022-10-21T13:58:03.363Z,1.05
2022-10-21T14:00:10.892Z,0.80
2022-10-21T14:02:27.259Z,1.02
2022-10-21T14:04:32.177Z,0.90
2022-10-21T14:06:37.107Z,1.00
2022-10-21T14:08:42.973Z,1.20
2022-10-21T14:10:46.598Z,1.00
2022-10-21T14:12:50.432Z,1.08
2022-10-21T14:14:55.330Z,1.20
2022-10-21T14:17:01.846Z,1.10
2022-10-21T14:21:16.771Z,0.77
2022-10-21T14:23:21.588Z,0.80
2022-10-21T14:25:24.575Z,0.90
2022-10-21T14:27:29.544Z,0.90
2022-10-21T14:29:35.799Z,1.00
2022-10-21T14:31:41.834Z,0.63
2022-10-21T14:33:49.671Z,1.13
2022-10-21T14:36:07.317Z,0.80
2022-10-21T14:38:26.440Z,0.95
2022-10-21T14:40:32.805Z,0.88
2022-10-21T14:42:35.490Z,1.00
2022-10-21T14:44:39.269Z,0.73
2022-10-21T14:46:44.005Z,1.17
2022-10-21T14:48:51.863Z,1.00
2022-10-21T14:50:59.796Z,0.93
2022-10-21T14:53:02.849Z,0.98
2022-10-21T14:55:10.463Z,1.67
2022-10-21T14:57:31.389Z,1.10
2022-10-21T14:59:40.158Z,0.98
2022-10-21T15:01:44.030Z,0.90
2022-10-21T15:03:49.834Z,1.27
2022-10-21T15:06:08.180Z,1.13
2022-10-21T15:08:29.170Z,1.00
2022-10-21T15:10:33.787Z,1.20
2022-10-21T15:12:41.739Z,1.10
2022-10-21T15:14:44.587Z,1.20
2022-10-21T15:16:50.200Z,0.70
2022-10-21T15:18:54.994Z,1.10
2022-10-21T15:21:01.373Z,0.80
2022-10-21T15:23:04.205Z,0.95
2022-10-21T15:25:10.243Z,1.08
2022-10-21T15:27:18.815Z,1.15
2022-10-21T15:29:34.112Z,0.90
2022-10-21T15:31:36.711Z,0.80
2022-10-21T15:33:39.315Z,0.90
2022-10-21T15:35:43.439Z,0.80
2022-10-21T15:37:48.651Z,1.10
2022-10-21T15:39:51.276Z,0.90
2022-10-21T15:41:56.268Z,1.00
2022-10-21T15:44:00.618Z,1.00
2022-10-21T15:46:03.225Z,0.90
2022-10-21T15:48:10.325Z,0.90
2022-10-21T15:50:17.320Z,0.60
2022-10-21T15:52:21.275Z,0.77
2022-10-21T15:54:23.895Z,0.80
2022-10-21T15:56:26.490Z,0.82
2022-10-21T15:58:29.271Z,0.80
2022-10-21T16:00:38.571Z,0.60
2022-10-21T16:02:43.451Z,0.90
2022-10-21T16:04:46.647Z,0.90
2022-10-21T16:06:50.608Z,0.90
2022-10-21T16:08:54.623Z,0.85
2022-10-21T16:10:57.794Z,0.80
2022-10-21T16:13:00.432Z,0.65
2022-10-21T16:15:03.072Z,1.00
2022-10-21T16:17:05.672Z,0.70
2022-10-21T16:19:08.353Z,0.80
2022-10-21T16:21:13.119Z,0.73
2022-10-21T16:23:15.744Z,0.60
2022-10-21T16:25:20.844Z,1.48
2022-10-21T16:27:43.257Z,1.42
2022-10-21T16:29:46.056Z,0.80
2022-10-21T16:31:48.856Z,0.60
2022-10-21T16:33:51.608Z,0.80
2022-10-21T16:35:54.498Z,0.80
2022-10-21T16:37:57.191Z,0.88
2022-10-21T16:39:59.847Z,0.75
2022-10-21T16:42:03.800Z,0.77
2022-10-21T16:44:06.479Z,0.68
2022-10-21T16:46:22.493Z,0.80
2022-10-21T16:50:36.845Z,0.88
2022-10-21T16:52:39.682Z,0.75
2022-10-21T16:54:43.458Z,0.70
2022-10-21T16:56:52.123Z,0.80
2022-10-21T16:58:58.980Z,0.50
2022-10-21T17:01:04.282Z,0.98
2022-10-21T17:03:07.643Z,0.95
2022-10-21T17:05:14.305Z,0.80
2022-10-21T17:07:17.043Z,0.90
2022-10-21T17:09:20.458Z,0.65
2022-10-21T17:11:25.275Z,0.70
2022-10-21T17:13:27.945Z,0.70
2022-10-21T17:15:31.843Z,0.93
2022-10-21T17:17:36.570Z,0.73
2022-10-21T17:19:39.314Z,1.02
2022-10-21T17:21:42.718Z,0.73
2022-10-21T17:23:45.322Z,0.75
2022-10-21T17:25:47.949Z,1.00
2022-10-21T17:27:50.899Z,0.80
2022-10-21T17:29:53.530Z,0.80
2022-10-21T17:31:57.524Z,0.60
2022-10-21T17:34:06.173Z,0.77
2022-10-21T17:36:08.876Z,0.70
2022-10-21T17:38:11.501Z,1.17
2022-10-21T17:40:16.899Z,0.80
2022-10-21T17:42:19.492Z,0.73
2022-10-21T17:44:22.452Z,0.90
2022-10-21T17:46:26.369Z,0.70
2022-10-21T17:48:30.413Z,1.13
2022-10-21T17:50:33.009Z,1.20
2022-10-21T17:52:36.032Z,1.20
2022-10-21T17:54:38.692Z,1.65
2022-10-21T17:56:41.966Z,1.60
2022-10-21T17:58:44.577Z,1.40
2022-10-21T18:00:47.291Z,1.42
2022-10-21T18:02:49.968Z,1.25
2022-10-21T18:04:53.989Z,1.00
2022-10-21T18:06:56.605Z,1.08
2022-10-21T18:09:00.118Z,1.02
2022-10-21T18:11:03.019Z,1.00
2022-10-21T18:13:05.674Z,0.98
2022-10-21T18:15:08.738Z,0.85
2022-10-21T18:17:11.729Z,0.90
2022-10-21T18:19:14.338Z,0.90
2022-10-21T18:21:20.956Z,0.93
2022-10-21T18:23:23.998Z,1.42
2022-10-21T18:25:26.609Z,1.40
2022-10-21T18:27:29.219Z,1.40
2022-10-21T18:29:31.806Z,1.35
2022-10-21T18:31:36.898Z,1.52
2022-10-21T18:33:39.674Z,1.63
2022-10-21T18:35:42.372Z,1.48
2022-10-21T18:37:46.908Z,1.60
2022-10-21T18:39:54.190Z,1.20
2022-10-21T18:41:58.037Z,1.40
2022-10-21T18:44:04.603Z,1.90
2022-10-21T18:46:07.207Z,1.50
2022-10-21T18:48:10.181Z,1.70
2022-10-21T18:50:13.117Z,1.15
2022-10-21T18:52:15.688Z,1.23
2022-10-21T18:54:19.631Z,1.55
2022-10-21T18:56:24.315Z,1.98
2022-10-21T18:58:26.942Z,1.42
2022-10-21T19:00:29.587Z,1.60
2022-10-21T19:02:32.222Z,1.20
2022-10-21T19:04:35.122Z,1.45
2022-10-21T19:06:40.597Z,1.30
2022-10-21T19:08:43.381Z,1.40
2022-10-21T19:10:47.487Z,1.27
2022-10-21T19:12:52.360Z,1.20
2022-10-21T19:14:55.362Z,1.20
2022-10-21T19:16:58.836Z,1.45
2022-10-21T19:19:01.461Z,1.13
2022-10-21T19:21:04.433Z,1.88
2022-10-21T19:23:07.515Z,1.25
2022-10-21T19:25:10.745Z,1.30
2022-10-21T19:27:14.735Z,1.20
2022-10-21T19:29:19.756Z,1.30
2022-10-21T19:31:22.350Z,1.30
2022-10-21T19:33:25.175Z,1.55
2022-10-21T19:35:27.812Z,1.77
2022-10-21T19:37:30.400Z,1.50
2022-10-21T19:39:33.062Z,1.35
2022-10-21T19:41:35.764Z,1.50
2022-10-21T19:43:40.136Z,1.52
2022-10-21T19:45:42.711Z,1.30
2022-10-21T19:47:45.461Z,1.40
2022-10-21T19:49:48.501Z,1.38
2022-10-21T19:51:51.156Z,1.50
2022-10-21T19:53:54.910Z,1.45
2022-10-21T19:55:57.484Z,1.20
2022-10-21T19:58:00.074Z,1.40
2022-10-21T20:00:05.588Z,1.45
2022-10-21T20:02:09.893Z,1.50
2022-10-21T20:04:12.530Z,1.30
2022-10-21T20:06:17.981Z,1.40
2022-10-21T20:08:20.621Z,1.42
2022-10-21T20:10:23.875Z,1.40
2022-10-21T20:12:26.470Z,1.65
2022-10-21T20:14:29.096Z,1.45
2022-10-21T20:16:36.555Z,1.80
2022-10-21T20:18:39.127Z,2.08
2022-10-21T20:20:42.050Z,2.00
2022-10-21T20:22:44.679Z,1.60
2022-10-21T20:24:47.312Z,1.80
2022-10-21T20:26:51.311Z,1.70
2022-10-21T20:28:53.908Z,1.60
2022-10-21T20:30:57.456Z,1.67
2022-10-21T20:33:01.415Z,1.60
2022-10-21T20:35:04.517Z,1.67
2022-10-21T20:37:07.207Z,1.73
2022-10-21T20:39:11.789Z,1.70
2022-10-21T20:41:17.336Z,1.65
2022-10-21T20:43:20.009Z,1.95
2022-10-21T20:45:22.868Z,2.03
2022-10-21T20:47:27.555Z,1.63
2022-10-21T20:49:34.282Z,1.60
2022-10-21T20:51:39.024Z,1.77
2022-10-21T20:53:45.407Z,2.17
2022-10-21T20:55:54.597Z,1.90
2022-10-21T20:57:57.217Z,1.88
2022-10-21T20:59:59.856Z,1.80
2022-10-21T21:02:02.482Z,1.77
2022-10-21T21:04:08.176Z,1.90
2022-10-21T21:06:13.665Z,2.10
2022-10-21T21:08:16.275Z,2.00
2022-10-21T21:10:18.918Z,2.65
2022-10-21T21:12:21.793Z,2.55
2022-10-21T21:14:24.424Z,2.33
2022-10-21T21:16:27.406Z,2.35
2022-10-21T21:18:30.011Z,2.13
2022-10-21T21:20:32.718Z,2.40
2022-10-21T21:22:37.947Z,2.45
2022-10-21T21:24:40.914Z,2.67
2022-10-21T21:26:43.538Z,2.60
2022-10-21T21:28:46.801Z,3.20
2022-10-21T21:30:52.327Z,2.47
2022-10-21T21:32:54.960Z,3.00
2022-10-21T21:34:58.747Z,2.38
2022-10-21T21:37:02.743Z,2.92
2022-10-21T21:39:08.377Z,3.15
2022-10-21T21:41:11.617Z,3.30
2022-10-21T21:43:14.256Z,3.47
2022-10-21T21:45:16.883Z,3.63
2022-10-21T21:47:19.447Z,2.67
2022-10-21T21:49:22.127Z,3.13
2022-10-21T21:51:26.331Z,2.80
2022-10-21T21:53:28.931Z,2.85
2022-10-21T21:55:33.260Z,2.00
2022-10-21T21:57:35.891Z,2.50
2022-10-21T21:59:38.479Z,2.10
2022-10-21T22:01:41.127Z,2.13
2022-10-21T22:03:44.307Z,1.80
2022-10-21T22:05:46.905Z,1.33
2022-10-21T22:07:50.096Z,2.17
2022-10-21T22:09:52.725Z,1.70
2022-10-21T22:11:56.695Z,1.30
2022-10-21T22:14:00.164Z,1.45
2022-10-21T22:16:02.837Z,1.10
2022-10-21T22:18:05.531Z,1.30
2022-10-21T22:20:09.699Z,1.50
2022-10-21T22:22:12.358Z,1.10
2022-10-21T22:24:14.997Z,1.20
2022-10-21T22:26:19.393Z,1.20
2022-10-21T22:28:23.430Z,1.10
2022-10-21T22:30:26.047Z,1.38
2022-10-21T22:32:28.694Z,1.20
2022-10-21T22:34:31.318Z,0.73
2022-10-21T22:36:33.888Z,1.10
2022-10-21T22:38:36.747Z,0.93
2022-10-21T22:40:39.336Z,1.48
2022-10-21T22:42:41.980Z,0.80
2022-10-21T22:44:46.077Z,0.80
2022-10-21T22:46:48.999Z,0.93
2022-10-21T22:48:51.627Z,0.70
2022-10-21T22:50:54.249Z,0.75
2022-10-21T22:52:57.123Z,0.90
2022-10-21T22:54:59.770Z,0.90
2022-10-21T22:57:02.405Z,0.80
2022-10-21T22:59:05.279Z,0.80
2022-10-21T23:01:10.845Z,0.73
2022-10-21T23:03:13.473Z,1.00
2022-10-21T23:05:16.580Z,0.70
2022-10-21T23:07:19.171Z,0.50
2022-10-21T23:09:21.856Z,0.60
2022-10-21T23:11:24.459Z,0.52
2022-10-21T23:13:27.311Z,0.73
2022-10-21T23:15:29.934Z,0.82
2022-10-21T23:17:34.292Z,0.70
2022-10-21T23:19:36.914Z,0.63
2022-10-21T23:21:39.762Z,0.57
2022-10-21T23:23:42.416Z,0.63
2022-10-21T23:25:44.982Z,0.70
2022-10-21T23:27:47.546Z,0.77
2022-10-21T23:29:50.136Z,0.60
2022-10-21T23:31:52.699Z,0.70
2022-10-21T23:33:56.867Z,1.55
2022-10-21T23:35:59.499Z,0.63
2022-10-21T23:38:02.147Z,0.70
2022-10-21T23:40:05.272Z,0.80
2022-10-21T23:42:08.012Z,0.68
2022-10-21T23:44:10.934Z,0.52
2022-10-21T23:46:13.558Z,0.60
2022-10-21T23:48:16.297Z,0.50
2022-10-21T23:50:20.446Z,0.60
2022-10-21T23:52:23.016Z,0.45
2022-10-21T23:54:25.633Z,0.60
2022-10-21T23:56:28.224Z,0.45
2022-10-21T23:58:30.814Z,0.50
